Time;durP1;ratioP1;P1;durP2;ratioP2;P2;SDS_P1;SDS_P2;PMS_P1;PMS_P2;Temp;Humidity;BMP_temperature;BMP_pressure;BME280_temperature;BME280_humidity;BME280_pressure;Samples;Min_cycle;Max_cycle;Signal;HPM_P1;HPM_P2
2022/04/13 00:01:28;;;;;;;5.27;4.67;;;12.20;99.90;;;;;;5013516;28;20187;-41
2022/04/13 00:03:53;;;;;;;6.20;4.63;;;12.00;99.90;;;;;;5001900;28;20190;-39
2022/04/13 00:06:19;;;;;;;5.73;4.90;;;11.90;99.90;;;;;;5033037;28;20175;-39
2022/04/13 00:08:45;;;;;;;9.43;4.90;;;12.00;99.90;;;;;;5016518;28;20214;-38
2022/04/13 00:11:13;;;;;;;5.17;4.47;;;12.00;99.90;;;;;;5016148;28;20181;-40
2022/04/13 00:13:40;;;;;;;5.90;4.77;;;12.10;99.90;;;;;;5032438;28;20584;-40
2022/04/13 00:16:06;;;;;;;6.23;4.50;;;12.10;99.90;;;;;;5016005;28;20237;-39
2022/04/13 00:18:32;;;;;;;6.63;4.80;;;12.10;99.90;;;;;;5034190;28;20223;-41
2022/04/13 00:20:58;;;;;;;8.37;4.77;;;12.10;99.90;;;;;;5016110;28;20191;-40
2022/04/13 00:23:23;;;;;;;6.97;4.70;;;12.20;99.90;;;;;;5032506;28;20186;-39
2022/04/13 00:25:49;;;;;;;6.77;4.60;;;12.20;99.90;;;;;;5015991;28;20191;-41
2022/04/13 00:28:16;;;;;;;5.20;4.67;;;12.30;99.90;;;;;;5029249;28;20249;-40
2022/04/13 00:30:42;;;;;;;6.53;4.70;;;12.30;99.90;;;;;;5012539;28;20251;-39
2022/04/13 00:33:08;;;;;;;6.70;4.87;;;12.30;99.90;;;;;;4997262;28;20189;-40
2022/04/13 00:35:35;;;;;;;9.77;5.00;;;12.30;99.90;;;;;;5016140;28;20233;-38
2022/04/13 00:38:01;;;;;;;6.67;4.90;;;12.40;99.90;;;;;;5016057;28;20201;-39
2022/04/13 00:40:27;;;;;;;9.00;4.90;;;12.30;99.90;;;;;;5032091;28;20187;-41
2022/04/13 00:42:53;;;;;;;7.63;5.43;;;12.20;99.90;;;;;;5031699;28;20222;-41
2022/04/13 00:45:19;;;;;;;4.80;4.00;;;12.10;99.90;;;;;;5015958;28;20188;-39
2022/04/13 00:47:46;;;;;;;9.00;5.37;;;12.10;99.90;;;;;;5031987;28;20271;-41
2022/04/13 00:50:12;;;;;;;6.80;4.63;;;12.10;99.90;;;;;;5015529;28;20192;-40
2022/04/13 00:52:43;;;;;;;6.57;4.67;;;12.00;99.90;;;;;;5048696;28;20184;-39
2022/04/13 00:55:10;;;;;;;4.97;4.40;;;12.00;99.90;;;;;;5015424;28;20183;-39
2022/04/13 00:57:37;;;;;;;5.27;4.20;;;12.00;99.90;;;;;;5015502;28;20334;-40
2022/04/13 01:00:05;;;;;;;4.60;4.10;;;12.00;99.90;;;;;;5015118;28;20190;-41
2022/04/13 01:02:31;;;;;;;5.03;4.27;;;11.90;99.90;;;;;;5031656;28;20225;-41
2022/04/13 01:05:05;;;;;;;7.60;4.80;;;11.90;99.90;;;;;;5031842;28;20187;-41
2022/04/13 01:07:33;;;;;;;8.13;5.90;;;11.80;99.90;;;;;;5015256;28;20203;-39
2022/04/13 01:10:00;;;;;;;8.50;6.07;;;11.90;99.90;;;;;;5014008;28;20210;-37
2022/04/13 01:12:27;;;;;;;9.33;6.30;;;11.80;99.90;;;;;;5015116;28;20383;-41
2022/04/13 01:14:53;;;;;;;9.00;5.97;;;11.70;99.90;;;;;;5031641;28;20184;-40
2022/04/13 01:17:19;;;;;;;8.93;5.80;;;11.70;99.90;;;;;;5031537;28;20209;-39
2022/04/13 01:19:48;;;;;;;4.07;3.60;;;11.60;99.90;;;;;;5048170;28;20181;-38
2022/04/13 01:22:25;;;;;;;5.60;3.70;;;11.40;99.90;;;;;;5031072;28;20635;-42
2022/04/13 01:24:51;;;;;;;4.43;3.70;;;11.20;99.90;;;;;;5014862;28;20182;-41
2022/04/13 01:27:18;;;;;;;4.77;3.67;;;11.00;99.90;;;;;;5015032;28;20224;-39
2022/04/13 01:29:45;;;;;;;4.00;3.57;;;10.90;99.90;;;;;;5014433;28;20241;-41
2022/04/13 01:32:12;;;;;;;4.87;4.07;;;11.00;99.90;;;;;;5029966;28;20193;-41
2022/04/13 01:34:48;;;;;;;5.87;3.80;;;11.00;99.90;;;;;;5032427;28;20544;-41
2022/04/13 01:37:17;;;;;;;6.97;4.30;;;11.00;99.90;;;;;;5015215;28;20213;-39
2022/04/13 01:39:42;;;;;;;6.40;4.43;;;11.00;99.90;;;;;;5032147;28;20181;-38
2022/04/13 01:42:09;;;;;;;10.23;5.00;;;11.20;99.90;;;;;;5032252;28;20216;-39
2022/04/13 01:44:35;;;;;;;7.77;4.70;;;11.10;99.90;;;;;;5033508;28;20178;-41
2022/04/13 01:47:01;;;;;;;7.50;4.17;;;11.10;99.90;;;;;;5032208;28;20186;-41
2022/04/13 01:49:26;;;;;;;6.50;4.23;;;11.00;99.90;;;;;;5014992;28;20339;-41
2022/04/13 01:51:52;;;;;;;5.17;4.43;;;10.90;99.90;;;;;;5032612;28;20523;-40
2022/04/13 01:54:18;;;;;;;5.60;4.80;;;10.90;99.90;;;;;;5015217;28;20178;-41
2022/04/13 01:56:44;;;;;;;5.97;4.37;;;11.00;99.90;;;;;;5015350;28;20225;-41
2022/04/13 01:59:10;;;;;;;5.03;4.47;;;11.00;99.90;;;;;;5031373;28;20208;-41
2022/04/13 02:01:43;;;;;;;5.40;4.40;;;11.00;99.90;;;;;;5015314;28;20183;-43
2022/04/13 02:04:23;;;;;;;5.07;4.43;;;11.00;99.90;;;;;;5031426;28;20182;-42
2022/04/13 02:06:50;;;;;;;5.70;4.30;;;10.90;99.90;;;;;;5031764;28;20179;-42
2022/04/13 02:09:17;;;;;;;5.80;4.57;;;10.90;99.90;;;;;;5014666;28;20211;-42
2022/04/13 02:11:43;;;;;;;6.27;4.07;;;10.90;99.90;;;;;;5031030;28;20178;-43
2022/04/13 02:14:09;;;;;;;5.73;3.53;;;10.90;99.90;;;;;;5015084;28;20269;-42
2022/04/13 02:16:36;;;;;;;5.10;3.97;;;10.90;99.90;;;;;;5015019;28;20185;-43
2022/04/13 02:19:03;;;;;;;4.70;4.20;;;10.90;99.90;;;;;;5015202;28;20222;-41
2022/04/13 02:21:30;;;;;;;9.87;4.00;;;10.90;99.90;;;;;;5014842;28;20225;-42
2022/04/13 02:23:57;;;;;;;5.13;3.77;;;10.90;99.90;;;;;;5032323;28;20240;-42
2022/04/13 02:26:24;;;;;;;5.17;3.83;;;10.90;99.90;;;;;;5014881;28;20178;-41
2022/04/13 02:28:50;;;;;;;6.17;4.00;;;10.80;99.90;;;;;;5014698;28;20238;-41
2022/04/13 02:31:16;;;;;;;5.63;3.97;;;10.70;99.90;;;;;;5031318;28;20179;-41
2022/04/13 02:33:43;;;;;;;6.37;4.40;;;10.40;99.90;;;;;;5032499;28;20181;-42
2022/04/13 02:36:08;;;;;;;5.47;3.87;;;10.30;99.90;;;;;;5031130;28;20236;-43
2022/04/13 02:38:34;;;;;;;6.70;4.33;;;10.10;99.90;;;;;;5031439;28;20199;-37
2022/04/13 02:41:00;;;;;;;4.90;4.23;;;9.90;99.90;;;;;;5046654;28;20178;-40
2022/04/13 02:43:36;;;;;;;5.97;4.20;;;9.90;99.90;;;;;;5014678;28;20213;-39
2022/04/13 02:46:02;;;;;;;5.67;4.07;;;9.90;99.90;;;;;;5014863;28;20217;-39
2022/04/13 02:48:28;;;;;;;7.27;4.43;;;9.80;99.90;;;;;;5014461;28;20268;-39
2022/04/13 02:50:54;;;;;;;6.97;4.30;;;9.90;99.90;;;;;;5030298;28;20183;-38
2022/04/13 02:53:19;;;;;;;5.00;3.80;;;9.90;99.90;;;;;;5050147;23;20229;-34
2022/04/13 02:55:45;;;;;;;5.10;4.33;;;9.90;99.90;;;;;;5012502;28;20589;-35
2022/04/13 02:58:11;;;;;;;4.50;4.00;;;9.90;99.90;;;;;;5030542;28;20190;-34
2022/04/13 03:00:37;;;;;;;5.20;4.10;;;9.90;99.90;;;;;;5044995;28;20251;-34
2022/04/13 03:03:03;;;;;;;4.83;4.27;;;9.90;99.90;;;;;;5051152;28;20180;-34
2022/04/13 03:05:33;;;;;;;6.70;4.27;;;9.90;99.90;;;;;;5016852;28;20185;-35
2022/04/13 03:07:59;;;;;;;4.67;4.13;;;9.90;99.90;;;;;;5016761;28;20185;-34
2022/04/13 03:10:25;;;;;;;6.70;4.77;;;9.90;99.90;;;;;;5020587;28;20171;-35
2022/04/13 03:12:52;;;;;;;5.23;4.10;;;9.90;99.90;;;;;;5020473;28;20193;-35
2022/04/13 03:15:22;;;;;;;8.00;4.70;;;10.00;99.90;;;;;;5013401;28;20186;-34
2022/04/13 03:17:49;;;;;;;6.73;4.73;;;10.00;99.90;;;;;;5013550;28;20706;-34
2022/04/13 03:20:15;;;;;;;6.13;4.83;;;10.00;99.90;;;;;;5014130;28;20178;-37
2022/04/13 03:22:40;;;;;;;5.50;4.73;;;10.00;99.90;;;;;;5013592;28;20182;-37
2022/04/13 03:25:06;;;;;;;4.90;4.40;;;10.00;99.90;;;;;;5013462;28;20285;-37
2022/04/13 03:27:32;;;;;;;7.03;4.43;;;10.00;99.90;;;;;;5013181;28;20225;-37
2022/04/13 03:29:58;;;;;;;6.30;4.20;;;10.00;99.90;;;;;;5019835;28;20202;-38
2022/04/13 03:32:24;;;;;;;6.23;4.20;;;9.90;99.90;;;;;;5033146;28;20178;-37
2022/04/13 03:34:50;;;;;;;6.83;3.83;;;9.80;99.90;;;;;;5033110;28;20252;-37
2022/04/13 03:37:15;;;;;;;4.93;4.40;;;9.70;99.90;;;;;;5016144;28;20174;-37
2022/04/13 03:39:41;;;;;;;7.77;4.37;;;9.70;99.90;;;;;;5012035;28;20171;-37
2022/04/13 03:42:07;;;;;;;6.40;4.03;;;9.60;99.90;;;;;;5013045;28;20182;-37
2022/04/13 03:44:33;;;;;;;4.90;4.30;;;9.50;99.90;;;;;;5013206;28;20214;-36
2022/04/13 03:46:59;;;;;;;5.33;4.40;;;9.20;99.90;;;;;;5013320;28;20186;-38
2022/04/13 03:49:25;;;;;;;5.60;3.97;;;9.20;99.90;;;;;;5014925;28;20210;-37
2022/04/13 03:51:51;;;;;;;6.77;4.37;;;9.10;99.90;;;;;;5016570;28;20182;-37
2022/04/13 03:54:16;;;;;;;7.93;4.53;;;9.00;99.90;;;;;;5050622;28;20200;-37
2022/04/13 03:56:42;;;;;;;7.23;4.33;;;8.90;99.90;;;;;;5050441;28;20231;-37
2022/04/13 03:59:08;;;;;;;8.47;4.33;;;8.90;99.90;;;;;;5005466;28;20457;-39
2022/04/13 04:01:34;;;;;;;8.10;4.50;;;8.80;99.90;;;;;;5014308;28;20642;-37
2022/04/13 04:04:00;;;;;;;6.57;4.50;;;8.80;99.90;;;;;;5014429;28;20213;-37
2022/04/13 04:06:26;;;;;;;5.53;4.10;;;8.80;99.90;;;;;;5016618;28;20186;-38
2022/04/13 04:08:52;;;;;;;7.37;4.30;;;8.90;99.90;;;;;;5016008;28;20214;-37
2022/04/13 04:11:18;;;;;;;5.93;4.57;;;8.90;99.90;;;;;;5032777;28;20181;-37
2022/04/13 04:13:44;;;;;;;4.40;4.00;;;8.80;99.90;;;;;;5021516;28;20204;-37
2022/04/13 04:16:10;;;;;;;5.60;4.10;;;8.90;99.90;;;;;;5016275;28;20189;-37
2022/04/13 04:18:36;;;;;;;5.63;4.20;;;8.90;99.90;;;;;;5015771;28;20244;-37
2022/04/13 04:21:02;;;;;;;6.57;4.30;;;9.00;99.90;;;;;;5030745;28;20189;-36
2022/04/13 04:23:28;;;;;;;6.73;4.33;;;9.10;99.90;;;;;;5019568;28;20545;-37
2022/04/13 04:25:53;;;;;;;5.03;4.40;;;9.20;99.90;;;;;;5019142;28;20192;-38
2022/04/13 04:28:19;;;;;;;5.23;4.10;;;9.20;99.90;;;;;;5029071;28;20205;-37
2022/04/13 04:30:45;;;;;;;6.63;4.53;;;9.20;99.90;;;;;;5016080;28;20183;-38
2022/04/13 04:33:16;;;;;;;6.17;4.90;;;9.20;99.90;;;;;;4999654;28;20214;-38
2022/04/13 04:35:50;;;;;;;9.30;5.50;;;9.20;99.90;;;;;;5033857;28;20208;-40
2022/04/13 04:38:16;;;;;;;6.63;4.93;;;9.20;99.90;;;;;;5020767;28;20247;-36
2022/04/13 04:40:41;;;;;;;7.57;4.83;;;9.20;99.90;;;;;;5053283;28;20192;-37
2022/04/13 04:43:07;;;;;;;7.60;4.50;;;9.20;99.90;;;;;;5009366;28;20206;-37
2022/04/13 04:45:34;;;;;;;5.20;4.47;;;9.10;99.90;;;;;;5016057;28;20574;-36
2022/04/13 04:48:04;;;;;;;4.70;4.20;;;9.10;99.90;;;;;;5018287;28;20525;-39
2022/04/13 04:50:31;;;;;;;7.70;4.87;;;8.90;99.90;;;;;;5018764;28;20597;-37
2022/04/13 04:52:57;;;;;;;5.30;4.47;;;8.90;99.90;;;;;;5018416;28;20271;-36
2022/04/13 04:55:23;;;;;;;6.23;4.60;;;9.00;99.90;;;;;;5019179;28;20245;-37
2022/04/13 04:57:50;;;;;;;5.93;4.50;;;8.90;99.90;;;;;;5003282;28;20220;-37
2022/04/13 05:00:17;;;;;;;7.47;5.77;;;9.00;99.90;;;;;;5015417;28;20186;-38
2022/04/13 05:02:45;;;;;;;9.03;5.20;;;9.10;99.90;;;;;;4999367;28;20189;-37
2022/04/13 05:05:13;;;;;;;7.13;4.40;;;9.20;99.90;;;;;;4999064;28;20189;-37
2022/04/13 05:07:40;;;;;;;6.13;4.63;;;9.20;99.90;;;;;;5012362;28;20224;-36
2022/04/13 05:10:07;;;;;;;5.67;5.07;;;9.30;99.90;;;;;;5018425;28;20240;-37
2022/04/13 05:12:45;;;;;;;6.33;4.77;;;9.30;99.90;;;;;;5030002;28;20187;-36
2022/04/13 05:15:11;;;;;;;5.30;4.60;;;9.20;99.90;;;;;;5015273;28;20212;-39
2022/04/13 05:17:37;;;;;;;5.23;4.10;;;9.30;99.90;;;;;;5017472;28;20183;-37
2022/04/13 05:20:07;;;;;;;6.00;4.63;;;9.20;99.90;;;;;;5014537;28;20185;-35
2022/04/13 05:22:34;;;;;;;8.20;5.40;;;9.20;99.90;;;;;;5015151;28;20182;-39
2022/04/13 05:25:08;;;;;;;5.10;4.30;;;9.10;99.90;;;;;;5014932;28;20203;-38
2022/04/13 05:27:34;;;;;;;5.13;4.27;;;9.00;99.90;;;;;;5029913;28;20198;-37
2022/04/13 05:30:00;;;;;;;7.10;4.90;;;8.90;99.90;;;;;;5000508;28;20284;-37
2022/04/13 05:32:26;;;;;;;6.03;4.50;;;9.00;99.90;;;;;;4998280;28;20182;-36
2022/04/13 05:35:00;;;;;;;7.30;5.40;;;9.10;99.90;;;;;;5021057;28;20201;-36
2022/04/13 05:37:27;;;;;;;6.53;5.00;;;9.20;99.90;;;;;;5034831;28;20207;-37
2022/04/13 05:39:53;;;;;;;6.60;4.77;;;9.30;99.90;;;;;;5017805;28;20190;-37
2022/04/13 05:42:25;;;;;;;7.90;4.63;;;9.40;99.90;;;;;;5014841;28;20193;-38
2022/04/13 05:44:51;;;;;;;9.10;4.70;;;9.40;99.90;;;;;;5020295;28;20677;-36
2022/04/13 05:47:17;;;;;;;5.53;4.93;;;9.40;99.90;;;;;;5034376;28;20182;-37
2022/04/13 05:49:44;;;;;;;8.00;4.83;;;9.30;99.90;;;;;;5051603;28;20205;-37
2022/04/13 05:52:09;;;;;;;5.60;5.07;;;9.30;99.90;;;;;;5018078;28;20174;-38
2022/04/13 05:54:35;;;;;;;7.60;5.17;;;9.40;99.90;;;;;;5017526;28;20218;-36
2022/04/13 05:57:02;;;;;;;5.77;4.83;;;9.50;99.90;;;;;;5006289;28;20186;-36
2022/04/13 05:59:31;;;;;;;6.00;4.83;;;9.70;99.90;;;;;;4997459;28;20196;-36
2022/04/13 06:01:57;;;;;;;8.37;5.07;;;9.80;99.90;;;;;;5014734;28;20178;-39
2022/04/13 06:04:23;;;;;;;5.90;5.30;;;9.90;99.90;;;;;;4997423;28;20214;-36
2022/04/13 06:06:50;;;;;;;5.80;4.73;;;10.00;99.90;;;;;;5014209;28;20233;-37
2022/04/13 06:09:16;;;;;;;8.50;5.03;;;10.10;99.90;;;;;;4996880;28;20221;-37
2022/04/13 06:11:41;;;;;;;5.10;4.60;;;10.20;99.90;;;;;;5013110;28;20551;-37
2022/04/13 06:14:07;;;;;;;6.63;5.03;;;10.30;99.90;;;;;;5012621;28;20199;-36
2022/04/13 06:16:33;;;;;;;7.63;5.47;;;10.40;99.90;;;;;;4997191;28;20231;-37
2022/04/13 06:18:59;;;;;;;8.33;5.13;;;10.50;99.90;;;;;;4997088;28;20191;-37
2022/04/13 06:21:27;;;;;;;6.47;5.60;;;10.50;99.90;;;;;;5016232;28;20209;-40
2022/04/13 06:23:53;;;;;;;6.27;4.67;;;10.60;99.90;;;;;;4994370;28;20265;-34
2022/04/13 06:26:19;;;;;;;9.27;5.87;;;10.70;99.90;;;;;;5005560;28;20182;-34
2022/04/13 06:28:45;;;;;;;9.23;6.00;;;10.80;99.90;;;;;;5025689;28;20202;-34
2022/04/13 06:31:10;;;;;;;6.80;5.53;;;10.90;99.90;;;;;;5032017;28;20171;-34
2022/04/13 06:33:36;;;;;;;8.23;5.80;;;10.90;99.90;;;;;;4996898;28;20199;-34
2022/04/13 06:36:05;;;;;;;9.23;5.30;;;10.90;99.90;;;;;;4993612;28;20176;-34
2022/04/13 06:38:31;;;;;;;7.77;4.80;;;10.90;99.90;;;;;;5010456;28;20641;-35
2022/04/13 06:40:57;;;;;;;9.87;5.17;;;11.00;99.90;;;;;;5010229;28;20193;-34
2022/04/13 06:43:23;;;;;;;6.10;4.53;;;11.00;99.90;;;;;;5014250;28;20214;-34
2022/04/13 06:45:49;;;;;;;8.53;4.93;;;11.00;99.90;;;;;;5013705;28;20183;-34
2022/04/13 06:48:15;;;;;;;6.60;4.80;;;11.10;99.90;;;;;;5013828;28;20179;-34
2022/04/13 06:50:41;;;;;;;10.90;5.10;;;11.10;99.90;;;;;;5013691;28;20261;-34
2022/04/13 06:53:07;;;;;;;7.63;4.97;;;11.20;99.90;;;;;;5013699;28;20202;-36
2022/04/13 06:55:34;;;;;;;8.80;4.93;;;11.30;99.90;;;;;;4996636;28;20176;-37
2022/04/13 06:58:02;;;;;;;11.53;5.43;;;11.40;99.90;;;;;;5022023;28;20178;-37
2022/04/13 07:00:28;;;;;;;8.33;4.80;;;11.50;99.90;;;;;;5004491;28;20190;-40
2022/04/13 07:02:57;;;;;;;7.90;5.27;;;11.70;99.90;;;;;;5013165;28;20205;-36
2022/04/13 07:05:25;;;;;;;8.10;5.03;;;11.80;99.90;;;;;;5013332;28;20193;-37
2022/04/13 07:07:51;;;;;;;7.80;5.07;;;12.00;99.90;;;;;;4993785;28;20210;-37
2022/04/13 07:10:16;;;;;;;7.53;5.03;;;12.10;99.90;;;;;;4993457;28;20239;-37
2022/04/13 07:12:43;;;;;;;7.23;5.00;;;12.20;99.90;;;;;;5001088;28;20224;-37
2022/04/13 07:15:09;;;;;;;6.13;4.97;;;12.30;99.90;;;;;;5035717;28;20202;-39
2022/04/13 07:17:35;;;;;;;7.63;4.93;;;12.30;99.90;;;;;;5008035;28;20219;-37
2022/04/13 07:20:01;;;;;;;8.57;5.00;;;12.40;99.90;;;;;;5012880;28;20207;-37
2022/04/13 07:22:27;;;;;;;9.30;5.37;;;12.60;99.90;;;;;;4996946;28;20561;-37
2022/04/13 07:24:53;;;;;;;6.33;4.53;;;12.60;99.90;;;;;;4996794;28;20226;-37
2022/04/13 07:27:19;;;;;;;8.77;5.30;;;12.60;99.90;;;;;;5013148;28;20200;-37
2022/04/13 07:29:45;;;;;;;10.17;5.40;;;12.70;99.90;;;;;;5013139;28;20277;-38
2022/04/13 07:32:11;;;;;;;7.00;5.30;;;12.80;99.90;;;;;;5033276;28;20186;-37
2022/04/13 07:34:36;;;;;;;7.47;4.93;;;13.00;99.90;;;;;;5016427;28;20251;-37
2022/04/13 07:37:05;;;;;;;8.83;5.30;;;13.20;99.90;;;;;;5033019;28;20219;-38
2022/04/13 07:39:31;;;;;;;9.70;5.00;;;13.40;99.90;;;;;;5019425;28;20206;-40
2022/04/13 07:41:57;;;;;;;5.90;5.23;;;13.60;99.90;;;;;;5054228;28;20184;-38
2022/04/13 07:44:23;;;;;;;11.23;5.40;;;13.80;99.90;;;;;;5017003;28;20206;-38
2022/04/13 07:46:49;;;;;;;8.77;5.47;;;13.90;99.90;;;;;;5022942;28;20273;-42
2022/04/13 07:49:15;;;;;;;7.83;5.33;;;14.00;99.90;;;;;;4999696;28;20226;-37
2022/04/13 07:51:41;;;;;;;7.50;5.03;;;14.20;99.90;;;;;;5016304;28;20205;-38
2022/04/13 07:54:07;;;;;;;7.90;5.47;;;14.30;99.90;;;;;;5016188;28;20697;-37
2022/04/13 07:56:33;;;;;;;8.50;5.80;;;14.30;99.90;;;;;;4999880;28;20274;-39
2022/04/13 07:58:59;;;;;;;7.37;5.10;;;14.30;99.90;;;;;;4999751;28;20631;-38
2022/04/13 08:01:25;;;;;;;7.17;4.93;;;14.50;99.90;;;;;;5034204;28;20189;-38
2022/04/13 08:03:50;;;;;;;8.67;5.40;;;14.60;99.90;;;;;;5033632;28;20237;-37
2022/04/13 08:06:16;;;;;;;6.23;5.10;;;14.80;99.90;;;;;;5001127;28;20174;-37
2022/04/13 08:08:42;;;;;;;5.73;5.00;;;15.00;99.90;;;;;;4998887;28;20352;-37
2022/04/13 08:11:08;;;;;;;8.50;4.80;;;15.10;99.90;;;;;;4999384;28;20237;-37
2022/04/13 08:13:34;;;;;;;8.40;4.87;;;15.30;99.90;;;;;;5016435;28;20515;-41
2022/04/13 08:16:00;;;;;;;6.30;5.20;;;15.40;99.90;;;;;;5015961;28;20198;-37
2022/04/13 08:18:26;;;;;;;7.20;4.97;;;15.50;99.90;;;;;;5034490;28;20182;-39
2022/04/13 08:20:52;;;;;;;8.10;5.00;;;15.50;99.90;;;;;;5017347;28;20175;-37
2022/04/13 08:23:17;;;;;;;6.47;4.90;;;15.50;99.90;;;;;;5033943;28;20210;-38
2022/04/13 08:25:44;;;;;;;8.20;4.70;;;15.70;99.90;;;;;;5014369;28;20240;-38
2022/04/13 08:28:10;;;;;;;8.53;5.47;;;15.90;99.90;;;;;;5031419;28;20211;-39
2022/04/13 08:30:36;;;;;;;6.83;5.30;;;16.00;99.90;;;;;;4997856;28;20218;-37
2022/04/13 08:33:02;;;;;;;6.13;4.70;;;16.10;99.90;;;;;;4998022;28;20282;-38
2022/04/13 08:35:28;;;;;;;9.37;5.40;;;16.20;99.90;;;;;;5027456;28;20190;-38
2022/04/13 08:37:53;;;;;;;5.33;4.80;;;16.30;99.90;;;;;;5017835;28;20208;-39
2022/04/13 08:40:21;;;;;;;7.57;4.50;;;16.50;99.90;;;;;;5034344;28;20281;-39
2022/04/13 08:43:03;;;;;;;6.20;4.93;;;16.70;99.90;;;;;;5012130;28;20182;-38
2022/04/13 08:45:36;;;;;;;5.13;4.17;;;16.80;99.90;;;;;;5016053;28;20198;-37
2022/04/13 08:48:05;;;;;;;8.00;4.53;;;16.90;99.90;;;;;;5015761;28;20262;-39
2022/04/13 08:50:31;;;;;;;4.30;3.90;;;17.00;99.90;;;;;;5020846;28;20213;-39
2022/04/13 08:53:00;;;;;;;6.73;4.37;;;17.20;99.90;;;;;;5035577;28;20209;-39
2022/04/13 08:55:28;;;;;;;5.75;4.90;;;17.30;99.90;;;;;;5036011;28;20201;-41
2022/04/13 08:58:37;;;;;;;5.80;5.25;;;17.40;99.90;;;;;;5018619;28;20217;-39
2022/04/13 09:01:08;;;;;;;5.95;4.18;;;17.40;99.90;;;;;;4963461;28;20201;-42
2022/04/13 09:03:43;;;;;;;6.00;4.53;;;17.50;99.90;;;;;;5033132;28;20194;-43
2022/04/13 09:06:10;;;;;;;6.75;4.22;;;17.70;99.90;;;;;;5015874;28;20182;-40
2022/04/13 09:08:50;;;;;;;6.70;4.63;;;17.90;99.90;;;;;;5015141;28;20209;-40
2022/04/13 09:11:22;;;;;;;8.00;4.07;;;18.00;99.90;;;;;;5015140;28;20214;-37
2022/04/13 09:13:50;;;;;;;6.65;3.80;;;18.30;99.90;;;;;;5015206;28;20295;-38
2022/04/13 09:16:16;;;;;;;5.57;3.70;;;18.50;99.90;;;;;;5015209;28;20646;-39
2022/04/13 09:18:43;;;;;;;4.60;3.55;;;18.60;99.90;;;;;;5015063;28;20178;-38
2022/04/13 09:21:12;;;;;;;6.63;3.80;;;18.80;99.90;;;;;;5015140;28;20183;-40
2022/04/13 09:23:38;;;;;;;5.75;3.75;;;19.00;99.90;;;;;;5016079;28;20206;-40
2022/04/13 09:26:06;;;;;;;6.03;3.60;;;19.10;99.90;;;;;;5032261;28;20178;-40
2022/04/13 09:28:31;;;;;;;6.10;3.88;;;19.10;99.90;;;;;;5014809;28;20237;-39
2022/04/13 09:30:57;;;;;;;6.95;3.60;;;19.20;99.90;;;;;;4998661;28;20210;-39
2022/04/13 09:33:25;;;;;;;6.63;3.85;;;19.40;99.90;;;;;;4998576;28;20199;-39
2022/04/13 09:35:50;;;;;;;3.92;3.13;;;19.60;99.90;;;;;;5014943;28;20175;-39
2022/04/13 09:38:19;;;;;;;5.28;3.70;;;19.80;99.90;;;;;;5015706;28;20206;-38
2022/04/13 09:40:45;;;;;;;5.60;3.90;;;19.90;99.90;;;;;;5014492;28;20639;-40
2022/04/13 09:43:14;;;;;;;6.90;4.15;;;20.10;99.90;;;;;;5014904;28;20218;-41
2022/04/13 09:45:49;;;;;;;4.38;3.78;;;20.10;99.90;;;;;;5014998;28;20262;-39
2022/04/13 09:48:18;;;;;;;5.80;3.42;;;20.10;99.90;;;;;;5014432;28;20179;-38
2022/04/13 09:50:46;;;;;;;7.05;4.15;;;20.30;99.90;;;;;;5014316;28;20183;-44
2022/04/13 09:53:15;;;;;;;5.78;3.90;;;20.30;99.90;;;;;;5032106;28;20238;-38
2022/04/13 09:55:50;;;;;;;7.03;3.67;;;20.30;99.90;;;;;;5015682;28;20279;-40
2022/04/13 09:58:18;;;;;;;4.75;3.47;;;20.40;99.90;;;;;;5032269;28;20276;-40
2022/04/13 10:00:47;;;;;;;5.50;3.65;;;20.50;99.90;;;;;;4997965;28;20190;-38
2022/04/13 10:03:21;;;;;;;6.55;3.97;;;20.60;99.90;;;;;;5031716;28;20191;-39
2022/04/13 10:05:54;;;;;;;5.97;3.40;;;20.70;99.90;;;;;;4998715;28;20201;-39
2022/04/13 10:08:22;;;;;;;7.28;3.78;;;20.70;99.90;;;;;;4999234;28;20301;-39
2022/04/13 10:10:50;;;;;;;18.38;4.68;;;20.70;99.90;;;;;;5016658;28;20171;-38
2022/04/13 10:13:37;;;;;;;5.93;3.25;;;20.90;99.90;;;;;;5006142;28;20203;-37
2022/04/13 10:16:08;;;;;;;6.50;3.45;;;21.20;99.90;;;;;;5013513;28;20187;-38
2022/04/13 10:19:04;;;;;;;5.88;3.20;;;21.40;99.90;;;;;;4997688;28;20191;-39
2022/04/13 10:21:41;;;;;;;5.00;3.65;;;21.60;99.90;;;;;;4983817;28;20195;-39
2022/04/13 10:24:23;;;;;;;5.45;3.67;;;21.60;99.90;;;;;;5021949;28;20280;-39
2022/04/13 10:27:04;;;;;;;5.68;3.55;;;21.50;99.90;;;;;;5034276;28;20198;-39
2022/04/13 10:29:36;;;;;;;6.75;3.97;;;21.60;99.90;;;;;;5034507;28;20247;-40
2022/04/13 10:32:13;;;;;;;5.15;2.95;;;21.70;99.90;;;;;;4998695;28;20201;-41
2022/04/13 10:34:55;;;;;;;5.28;3.10;;;21.80;99.90;;;;;;5016124;28;20198;-38
2022/04/13 10:37:23;;;;;;;3.72;2.78;;;21.90;99.90;;;;;;5031079;28;20304;-39
2022/04/13 10:39:52;;;;;;;6.53;3.33;;;22.00;99.90;;;;;;5014720;28;20186;-39
2022/04/13 10:42:20;;;;;;;4.13;2.55;;;22.20;99.90;;;;;;5013361;28;20170;-40
2022/04/13 10:44:54;;;;;;;14.68;13.23;;;22.30;99.90;;;;;;5001446;28;20674;-39
2022/04/13 10:47:50;;;;;;;4.13;2.75;;;22.50;99.90;;;;;;5013241;28;20447;-37
2022/04/13 10:50:24;;;;;;;4.20;2.55;;;22.60;99.90;;;;;;4964395;28;20217;-40
2022/04/13 10:52:57;;;;;;;4.13;2.17;;;22.60;99.90;;;;;;5013677;28;20217;-39
2022/04/13 10:55:24;;;;;;;30.90;27.70;;;22.70;99.90;;;;;;5013524;28;20198;-38
2022/04/13 10:58:10;;;;;;;4.82;3.00;;;22.70;99.90;;;;;;5013398;28;20189;-39
2022/04/13 11:00:40;;;;;;;3.20;2.15;;;23.00;99.90;;;;;;5017319;28;20173;-39
2022/04/13 11:03:06;;;;;;;5.53;2.35;;;23.20;99.90;;;;;;5013270;28;20189;-39
2022/04/13 11:05:32;;;;;;;4.18;2.15;;;23.40;99.90;;;;;;5017281;28;20186;-39
2022/04/13 11:08:07;;;;;;;5.10;2.08;;;23.50;99.90;;;;;;5030394;28;20171;-40
2022/04/13 11:10:35;;;;;;;3.50;2.08;;;23.70;99.90;;;;;;5035878;28;20175;-40
2022/04/13 11:13:01;;;;;;;5.13;2.30;;;23.80;99.70;;;;;;4998480;28;20193;-38
2022/04/13 11:15:44;;;;;;;3.30;2.35;;;23.80;99.40;;;;;;5002366;28;20186;-39
2022/04/13 11:18:12;;;;;;;3.47;2.00;;;23.80;98.40;;;;;;5040314;28;20175;-41
2022/04/13 11:20:58;;;;;;;3.78;2.10;;;23.90;97.60;;;;;;5000892;28;20175;-39
2022/04/13 11:23:44;;;;;;;4.75;2.35;;;24.10;97.10;;;;;;5004297;28;20203;-39
2022/04/13 11:26:10;;;;;;;10.98;5.70;;;24.10;94.80;;;;;;4993157;28;20183;-40
2022/04/13 11:28:36;;;;;;;3.90;1.95;;;23.90;95.30;;;;;;5020944;28;20247;-40
2022/04/13 11:31:12;;;;;;;5.32;2.20;;;23.50;93.30;;;;;;5019763;28;20213;-39
2022/04/13 11:33:55;;;;;;;3.42;2.15;;;23.40;94.40;;;;;;5015110;28;20199;-39
2022/04/13 11:36:24;;;;;;;7.97;2.22;;;23.70;95.80;;;;;;5035117;28;20174;-39
2022/04/13 11:38:51;;;;;;;4.63;1.80;;;23.90;93.20;;;;;;5016594;28;20187;-39
2022/04/13 11:41:18;;;;;;;4.60;2.05;;;24.10;93.70;;;;;;5016760;28;20190;-39
2022/04/13 11:43:45;;;;;;;5.47;1.70;;;24.40;93.00;;;;;;5002033;28;20696;-41
2022/04/13 11:46:39;;;;;;;2.70;1.40;;;24.40;91.50;;;;;;5021169;28;20278;-42
2022/04/13 11:49:10;;;;;;;5.22;2.28;;;24.70;93.40;;;;;;5041259;28;20206;-40
2022/04/13 11:51:36;;;;;;;5.97;2.00;;;24.90;92.20;;;;;;5015142;28;20182;-40
2022/04/13 11:54:09;;;;;;;3.30;2.30;;;25.10;91.20;;;;;;5021760;28;20214;-44
2022/04/13 11:56:48;;;;;;;4.32;2.13;;;25.10;90.50;;;;;;5030559;28;20182;-40
2022/04/13 11:59:45;;;;;;;4.35;1.77;;;25.30;91.30;;;;;;5022798;28;20189;-39
2022/04/13 12:02:15;;;;;;;4.53;1.70;;;25.50;89.60;;;;;;5016262;28;20190;-42
2022/04/13 12:04:47;;;;;;;5.38;1.83;;;25.80;89.30;;;;;;5007127;28;20202;-39
2022/04/13 12:07:12;;;;;;;4.13;1.85;;;26.00;87.70;;;;;;5017343;28;20186;-38
2022/04/13 12:09:39;;;;;;;3.85;1.58;;;25.90;88.40;;;;;;5036617;28;20205;-39
2022/04/13 12:12:13;;;;;;;5.10;1.90;;;26.10;90.00;;;;;;5017102;28;20173;-40
2022/04/13 12:14:40;;;;;;;5.03;1.60;;;26.30;87.20;;;;;;5011114;28;20701;-39
2022/04/13 12:17:06;;;;;;;3.63;1.92;;;26.20;84.70;;;;;;5020828;28;20203;-41
2022/04/13 12:19:41;;;;;;;5.65;1.67;;;26.30;87.20;;;;;;5001426;28;20245;-40
2022/04/13 12:22:20;;;;;;;5.28;2.15;;;26.30;85.40;;;;;;4999556;28;20182;-39
2022/04/13 12:25:19;;;;;;;3.20;1.55;;;26.20;83.70;;;;;;5032601;28;20189;-40
2022/04/13 12:28:05;;;;;;;4.25;1.42;;;26.10;83.70;;;;;;4946381;28;20191;-39
2022/04/13 12:30:31;;;;;;;4.38;1.80;;;26.20;83.80;;;;;;5007539;28;20212;-39
2022/04/13 12:32:57;;;;;;;6.07;2.08;;;26.50;83.50;;;;;;5009929;28;20182;-40
2022/04/13 12:35:22;;;;;;;5.50;2.20;;;26.70;82.40;;;;;;5024707;28;20183;-37
2022/04/13 12:37:53;;;;;;;9.30;2.20;;;26.90;83.20;;;;;;5027066;28;20172;-38
2022/04/13 12:40:24;;;;;;;8.30;1.80;;;27.00;81.00;;;;;;5005745;28;20210;-39
2022/04/13 12:42:51;;;;;;;4.32;1.77;;;27.10;79.90;;;;;;5022781;28;20247;-38
2022/04/13 12:45:17;;;;;;;3.40;1.67;;;27.20;79.10;;;;;;4998297;28;20175;-40
2022/04/13 12:47:47;;;;;;;7.47;2.00;;;27.30;77.80;;;;;;4998663;28;20179;-39
2022/04/13 12:50:14;;;;;;;7.47;2.03;;;27.50;76.40;;;;;;4999359;28;20217;-40
2022/04/13 12:52:42;;;;;;;5.60;2.00;;;27.00;72.40;;;;;;5018823;28;20605;-39
2022/04/13 12:55:09;;;;;;;4.97;1.88;;;26.60;76.70;;;;;;5053036;28;20220;-38